Time;durP1;ratioP1;P1;durP2;ratioP2;P2;SDS_P1;SDS_P2;PMS_P1;PMS_P2;Temp;Humidity;BMP_temperature;BMP_pressure;BME280_temperature;BME280_humidity;BME280_pressure;Samples;Min_cycle;Max_cycle;Signal;HPM_P1;HPM_P2
2021/12/28 00:01:05;;;;;;;4.97;2.05;;;;;;;6.21;100.00;97377.66;5051292;28;20032;-70
2021/12/28 00:03:31;;;;;;;7.80;2.38;;;;;;;6.24;100.00;97360.31;5050158;28;20034;-70
2021/12/28 00:05:58;;;;;;;5.85;1.88;;;;;;;6.26;100.00;97367.13;5048355;28;20037;-70
2021/12/28 00:08:24;;;;;;;3.38;1.23;;;;;;;6.38;100.00;97377.19;5058336;28;20031;-70
2021/12/28 00:10:49;;;;;;;7.68;1.67;;;;;;;6.35;100.00;97373.06;5054255;28;20393;-70
2021/12/28 00:13:18;;;;;;;2.63;1.20;;;;;;;6.48;100.00;97372.19;5052575;28;20028;-70
2021/12/28 00:15:49;;;;;;;7.38;1.30;;;;;;;6.50;100.00;97378.19;5056364;28;20030;-70
2021/12/28 00:18:15;;;;;;;2.95;1.17;;;;;;;6.54;100.00;97382.09;5052236;28;20047;-70
2021/12/28 00:20:44;;;;;;;4.47;1.20;;;;;;;6.47;100.00;97357.09;5043971;28;20056;-70
2021/12/28 00:23:17;;;;;;;3.38;1.00;;;;;;;6.58;100.00;97375.25;5039841;28;20409;-70
2021/12/28 00:25:43;;;;;;;4.63;1.10;;;;;;;6.52;100.00;97368.88;5041560;28;20453;-70
2021/12/28 00:28:09;;;;;;;3.38;1.00;;;;;;;6.39;100.00;97354.66;5047046;28;20029;-70
2021/12/28 00:30:34;;;;;;;4.43;1.05;;;;;;;6.37;100.00;97373.69;5047342;28;20051;-70
2021/12/28 00:33:01;;;;;;;6.13;1.45;;;;;;;6.25;100.00;97376.19;5046280;28;20025;-70
2021/12/28 00:35:32;;;;;;;4.43;1.15;;;;;;;6.09;100.00;97369.41;5046959;28;20035;-70
2021/12/28 00:37:58;;;;;;;3.55;0.95;;;;;;;6.22;100.00;97368.56;5048227;28;20073;-73
2021/12/28 00:40:23;;;;;;;5.55;1.15;;;;;;;6.24;100.00;97366.50;5048538;28;20736;-70
2021/12/28 00:42:50;;;;;;;5.05;1.30;;;;;;;6.19;100.00;97358.25;5044060;28;20112;-70
2021/12/28 00:45:15;;;;;;;8.77;1.25;;;;;;;6.22;100.00;97352.44;5045996;28;20029;-70
2021/12/28 00:47:41;;;;;;;7.80;1.38;;;;;;;6.18;100.00;97353.06;5044389;28;20026;-70
2021/12/28 00:50:10;;;;;;;8.20;1.20;;;;;;;6.22;100.00;97355.13;5047386;28;20041;-70
2021/12/28 00:52:36;;;;;;;6.80;1.55;;;;;;;6.26;100.00;97336.72;5047928;28;20123;-70
2021/12/28 00:55:03;;;;;;;5.53;1.38;;;;;;;6.29;100.00;97337.13;5046014;28;20534;-70
2021/12/28 00:57:28;;;;;;;4.20;1.20;;;;;;;6.28;100.00;97340.03;5048788;28;20021;-70
2021/12/28 00:59:54;;;;;;;5.65;1.02;;;;;;;6.18;100.00;97340.47;5042248;28;20036;-70
2021/12/28 01:02:19;;;;;;;3.90;0.90;;;;;;;6.03;100.00;97331.84;5053897;28;20507;-70
2021/12/28 01:04:44;;;;;;;9.25;1.58;;;;;;;6.01;100.00;97337.41;5050060;28;20055;-70
2021/12/28 01:07:09;;;;;;;8.48;1.17;;;;;;;6.00;100.00;97322.38;5052218;28;20104;-70
2021/12/28 01:09:35;;;;;;;6.65;1.58;;;;;;;6.00;100.00;97332.25;5048994;28;20029;-70
2021/12/28 01:12:04;;;;;;;11.77;1.65;;;;;;;6.03;100.00;97334.53;5043279;28;20104;-70
2021/12/28 01:14:29;;;;;;;5.93;1.50;;;;;;;6.08;100.00;97330.19;5033792;28;20098;-70
2021/12/28 01:16:56;;;;;;;6.07;1.00;;;;;;;5.99;100.00;97315.31;5044506;28;20028;-70
2021/12/28 01:19:22;;;;;;;6.05;1.20;;;;;;;5.99;100.00;97325.25;5057212;28;20036;-70
2021/12/28 01:21:47;;;;;;;4.78;1.10;;;;;;;5.96;100.00;97329.16;5054215;28;20105;-70
2021/12/28 01:24:12;;;;;;;5.00;1.02;;;;;;;5.85;100.00;97292.22;5050733;28;20028;-70
2021/12/28 01:26:38;;;;;;;8.13;1.20;;;;;;;6.02;100.00;97314.09;5047186;28;20383;-70
2021/12/28 01:29:03;;;;;;;8.05;1.30;;;;;;;5.88;100.00;97292.63;5047811;28;20025;-70
2021/12/28 01:31:29;;;;;;;5.53;1.10;;;;;;;6.02;100.00;97317.59;5054931;28;20056;-70
2021/12/28 01:33:55;;;;;;;7.38;2.00;;;;;;;5.81;100.00;97290.97;5050762;28;20036;-70
2021/12/28 01:36:21;;;;;;;11.98;1.67;;;;;;;5.91;100.00;97307.47;5053887;28;20754;-70
2021/12/28 01:38:46;;;;;;;10.68;2.20;;;;;;;5.84;100.00;97290.56;5031031;28;20124;-70
2021/12/28 01:41:12;;;;;;;7.28;1.30;;;;;;;5.90;100.00;97303.16;5032037;28;20032;-70
2021/12/28 01:43:40;;;;;;;9.48;1.20;;;;;;;5.99;100.00;97303.78;5051545;28;20751;-70
2021/12/28 01:46:07;;;;;;;10.20;1.20;;;;;;;6.02;100.00;97292.59;5055608;28;20024;-70
2021/12/28 01:48:38;;;;;;;12.02;1.40;;;;;;;5.97;100.00;97293.22;5046990;28;20109;-70
2021/12/28 01:51:13;;;;;;;6.47;1.17;;;;;;;5.95;100.00;97302.53;5053753;28;20060;-70
2021/12/28 01:53:40;;;;;;;10.27;1.75;;;;;;;5.90;100.00;97290.56;5032318;28;20028;-70
2021/12/28 01:56:11;;;;;;;6.97;1.15;;;;;;;5.88;100.00;97276.50;5056186;28;20032;-70
2021/12/28 01:58:38;;;;;;;7.35;1.52;;;;;;;6.03;100.00;97275.47;5056906;28;20051;-70
2021/12/28 02:01:05;;;;;;;10.50;1.33;;;;;;;6.10;100.00;97269.06;5049603;28;20078;-70
2021/12/28 02:03:32;;;;;;;8.50;1.15;;;;;;;6.17;100.00;97260.94;5032166;28;20100;-70
2021/12/28 02:05:57;;;;;;;9.00;1.13;;;;;;;6.10;100.00;97252.09;5048984;28;20396;-70
2021/12/28 02:08:23;;;;;;;6.80;1.52;;;;;;;6.12;100.00;97261.59;5056047;28;20017;-70
2021/12/28 02:10:51;;;;;;;11.43;1.13;;;;;;;6.09;100.00;97261.19;5054769;28;20027;-70
2021/12/28 02:13:17;;;;;;;5.05;0.70;;;;;;;6.08;100.00;97251.50;5052389;28;20032;-70
2021/12/28 02:15:43;;;;;;;7.65;1.02;;;;;;;6.12;100.00;97250.84;5058188;28;20047;-69
2021/12/28 02:18:12;;;;;;;10.00;1.50;;;;;;;6.20;100.00;97241.72;5055425;28;20022;-70
2021/12/28 02:20:38;;;;;;;8.68;1.30;;;;;;;6.14;100.00;97231.84;5052733;28;20040;-69
2021/12/28 02:23:04;;;;;;;9.07;1.10;;;;;;;6.18;100.00;97233.06;5054398;28;20071;-70
2021/12/28 02:25:31;;;;;;;4.63;1.10;;;;;;;6.06;100.00;97227.53;5037892;28;20025;-70
2021/12/28 02:27:57;;;;;;;6.30;1.27;;;;;;;5.61;100.00;97152.34;5049416;28;20051;-70
2021/12/28 02:30:23;;;;;;;10.45;1.42;;;;;;;6.14;100.00;97229.16;5053099;28;20032;-70
2021/12/28 02:32:49;;;;;;;9.63;1.00;;;;;;;5.91;100.00;97179.44;5049210;28;20036;-70
2021/12/28 02:35:18;;;;;;;13.63;1.58;;;;;;;6.18;100.00;97213.44;5050327;28;20078;-69
2021/12/28 02:37:45;;;;;;;6.90;1.40;;;;;;;6.21;100.00;97211.16;5051176;28;20033;-70
2021/12/28 02:40:13;;;;;;;8.43;1.08;;;;;;;6.21;100.00;97211.16;5052544;28;20041;-69
2021/12/28 02:42:40;;;;;;;12.02;1.83;;;;;;;6.19;100.00;97205.19;5054611;28;20025;-70
2021/12/28 02:45:10;;;;;;;4.95;1.02;;;;;;;6.18;100.00;97210.75;5050256;28;20041;-70
2021/12/28 02:47:43;;;;;;;12.45;1.52;;;;;;;6.21;100.00;97197.75;5035498;28;20025;-70
2021/12/28 02:50:12;;;;;;;6.22;0.98;;;;;;;6.26;100.00;97205.13;5045989;28;20548;-70
2021/12/28 02:52:38;;;;;;;10.55;1.05;;;;;;;6.31;100.00;97194.56;5042173;28;20043;-70
2021/12/28 02:55:09;;;;;;;11.48;1.50;;;;;;;6.36;100.00;97200.09;5048006;28;20032;-70
2021/12/28 02:57:34;;;;;;;6.20;1.30;;;;;;;6.32;100.00;97194.34;5044762;28;20505;-70
2021/12/28 03:00:00;;;;;;;10.55;1.08;;;;;;;6.22;100.00;97169.00;5043330;28;20037;-70
2021/12/28 03:02:25;;;;;;;8.80;1.35;;;;;;;6.27;100.00;97196.88;5055594;28;20107;-69
2021/12/28 03:04:50;;;;;;;7.53;1.55;;;;;;;6.27;100.00;97194.19;5050957;28;20025;-69
2021/12/28 03:07:16;;;;;;;9.02;1.10;;;;;;;6.31;100.00;97187.34;5051438;28;20032;-70
2021/12/28 03:09:41;;;;;;;6.75;1.33;;;;;;;6.42;100.00;97185.00;5030957;28;20040;-70
2021/12/28 03:12:07;;;;;;;8.75;1.40;;;;;;;6.41;100.00;97177.97;5042802;28;20029;-70
2021/12/28 03:14:33;;;;;;;6.32;0.90;;;;;;;6.51;100.00;97184.50;5052192;28;20040;-70
2021/12/28 03:16:58;;;;;;;7.18;1.00;;;;;;;6.66;100.00;97172.66;5046670;28;20086;-70
2021/12/28 03:19:24;;;;;;;9.95;1.30;;;;;;;6.65;100.00;97177.19;5049722;28;20470;-69
2021/12/28 03:21:50;;;;;;;7.25;1.20;;;;;;;6.59;100.00;97165.44;5048693;28;20025;-69
2021/12/28 03:24:17;;;;;;;4.22;1.00;;;;;;;6.73;100.00;97184.16;5049561;28;20031;-69
2021/12/28 03:26:43;;;;;;;6.88;1.02;;;;;;;6.75;100.00;97168.63;5041977;28;20029;-69
2021/12/28 03:29:09;;;;;;;5.65;1.17;;;;;;;6.84;100.00;97163.78;5022319;28;20021;-69
2021/12/28 03:31:34;;;;;;;11.68;1.23;;;;;;;6.64;100.00;97129.84;5047322;28;20028;-69
2021/12/28 03:34:00;;;;;;;8.68;1.65;;;;;;;6.97;100.00;97144.88;5053959;28;20123;-69
2021/12/28 03:36:28;;;;;;;7.82;1.33;;;;;;;7.13;98.80;97154.25;5052447;28;20025;-69
2021/12/28 03:38:54;;;;;;;11.43;1.38;;;;;;;7.15;98.92;97157.53;5052876;28;20033;-69
2021/12/28 03:41:22;;;;;;;12.45;1.25;;;;;;;7.25;97.22;97147.88;5054472;28;20033;-70
2021/12/28 03:43:49;;;;;;;7.20;0.85;;;;;;;7.27;96.93;97149.56;5053110;28;20081;-69
2021/12/28 03:46:15;;;;;;;8.35;1.70;;;;;;;7.11;97.04;97119.50;5052894;28;20025;-69
2021/12/28 03:48:42;;;;;;;10.63;1.45;;;;;;;7.19;97.40;97137.22;5030507;28;20020;-70
2021/12/28 03:51:08;;;;;;;9.55;1.38;;;;;;;7.13;97.50;97140.81;5048511;28;20036;-69
2021/12/28 03:53:34;;;;;;;7.55;0.90;;;;;;;7.13;97.65;97138.94;5054053;28;20061;-69
2021/12/28 03:56:01;;;;;;;7.05;1.20;;;;;;;7.18;96.58;97130.22;5056370;28;20100;-68
2021/12/28 03:58:26;;;;;;;4.78;1.10;;;;;;;7.19;96.43;97126.47;5051252;28;20036;-69
2021/12/28 04:00:52;;;;;;;4.13;0.90;;;;;;;7.06;95.86;97097.03;5034765;28;20029;-70
2021/12/28 04:03:17;;;;;;;8.57;0.93;;;;;;;7.18;95.70;97109.50;5052810;28;20029;-70
2021/12/28 04:05:44;;;;;;;10.07;1.38;;;;;;;7.23;95.70;97117.72;5049308;28;20041;-70
2021/12/28 04:08:16;;;;;;;5.60;1.58;;;;;;;7.22;95.70;97124.13;5049609;28;20020;-70
2021/12/28 04:11:01;;;;;;;8.60;1.20;;;;;;;7.29;94.22;97107.94;5047844;28;20547;-71
2021/12/28 04:13:27;;;;;;;8.93;1.40;;;;;;;7.30;94.78;97114.13;5050415;28;20061;-70
2021/12/28 04:15:52;;;;;;;3.40;1.05;;;;;;;7.32;94.05;97114.75;5047593;28;20064;-71
2021/12/28 04:18:18;;;;;;;7.28;1.00;;;;;;;7.20;94.39;97095.81;5048105;28;20032;-70
2021/12/28 04:20:44;;;;;;;7.78;1.83;;;;;;;7.39;93.21;97110.13;5048623;28;20032;-70
2021/12/28 04:23:10;;;;;;;9.18;1.17;;;;;;;7.36;93.21;97095.25;5045834;28;20075;-70
2021/12/28 04:25:35;;;;;;;7.97;0.82;;;;;;;7.32;92.40;97098.59;5049228;28;20028;-70
2021/12/28 04:28:00;;;;;;;2.22;0.80;;;;;;;7.51;92.06;97115.53;5047830;28;20029;-70
2021/12/28 04:30:26;;;;;;;3.33;0.70;;;;;;;7.47;91.78;97107.13;5052616;28;20098;-71
2021/12/28 04:32:52;;;;;;;8.50;1.35;;;;;;;7.43;92.48;97116.66;5038618;28;20025;-70
2021/12/28 04:35:17;;;;;;;12.48;1.60;;;;;;;7.35;93.01;97107.03;5047781;28;20452;-70
2021/12/28 04:37:43;;;;;;;6.28;0.80;;;;;;;7.24;94.50;97118.53;5054960;28;20107;-70
2021/12/28 04:40:10;;;;;;;5.68;1.55;;;;;;;7.11;96.11;97107.94;5051382;28;20844;-70
2021/12/28 04:42:35;;;;;;;5.50;1.23;;;;;;;6.91;96.94;97097.38;5032839;28;20038;-70
2021/12/28 04:45:01;;;;;;;7.40;1.30;;;;;;;6.91;98.05;97113.50;5046504;28;20036;-71
2021/12/28 04:47:26;;;;;;;7.82;1.33;;;;;;;6.83;98.80;97119.97;5053777;28;20051;-70
2021/12/28 04:49:52;;;;;;;4.82;1.10;;;;;;;6.58;100.00;97098.50;5048411;28;20036;-70
2021/12/28 04:52:17;;;;;;;4.82;0.95;;;;;;;6.65;100.00;97128.00;5050890;28;20103;-70
2021/12/28 04:54:43;;;;;;;9.63;1.08;;;;;;;6.58;100.00;97115.44;5055694;28;20037;-71
2021/12/28 04:57:08;;;;;;;9.05;1.13;;;;;;;6.40;100.00;97085.03;5058309;28;20024;-71
2021/12/28 04:59:34;;;;;;;4.78;0.90;;;;;;;6.53;100.00;97103.72;5052324;28;20382;-71
2021/12/28 05:02:00;;;;;;;7.10;0.98;;;;;;;6.57;100.00;97099.53;5045026;28;20086;-71
2021/12/28 05:04:25;;;;;;;10.32;1.00;;;;;;;6.53;100.00;97090.28;5056080;28;20052;-71
2021/12/28 05:06:55;;;;;;;5.55;1.45;;;;;;;6.61;100.00;97095.38;5057508;28;20024;-71
2021/12/28 05:09:20;;;;;;;;;;;;;;;6.56;100.00;97087.16;5058738;28;20025;-71
2021/12/28 05:11:48;;;;;;;10.98;1.15;;;;;;;6.52;100.00;97084.09;5053658;28;20524;-72
2021/12/28 05:14:16;;;;;;;10.13;1.20;;;;;;;6.27;100.00;97038.41;5056519;28;20031;-71
2021/12/28 05:16:41;;;;;;;5.93;1.02;;;;;;;6.54;100.00;97073.91;5058135;28;20039;-71
2021/12/28 05:19:07;;;;;;;11.05;1.58;;;;;;;6.51;100.00;97063.63;5056870;28;20025;-72
2021/12/28 05:21:34;;;;;;;4.43;0.82;;;;;;;6.58;100.00;97066.25;5041895;28;20024;-71
2021/12/28 05:23:59;;;;;;;9.00;1.00;;;;;;;6.65;100.00;97067.00;5051633;28;20024;-71
2021/12/28 05:26:24;;;;;;;5.47;2.00;;;;;;;6.55;100.00;97053.28;5053840;28;20394;-71
2021/12/28 05:28:50;;;;;;;9.13;1.42;;;;;;;6.58;100.00;97066.25;5029769;28;20029;-72
2021/12/28 05:31:15;;;;;;;5.45;1.23;;;;;;;6.62;100.00;97055.88;5047211;28;20442;-71
2021/12/28 05:33:41;;;;;;;5.07;1.08;;;;;;;6.58;100.00;97055.50;5047335;28;20032;-71
2021/12/28 05:36:07;;;;;;;5.30;1.60;;;;;;;6.42;100.00;97043.47;5048868;28;20037;-71
2021/12/28 05:38:33;;;;;;;8.23;1.05;;;;;;;6.60;100.00;97058.78;5044925;28;20025;-71
2021/12/28 05:40:58;;;;;;;13.18;1.17;;;;;;;6.70;100.00;97066.34;5050335;28;20055;-71
2021/12/28 05:43:23;;;;;;;7.93;0.98;;;;;;;6.47;100.00;97026.66;5049444;28;20036;-72
2021/12/28 05:45:49;;;;;;;3.92;1.00;;;;;;;6.65;100.00;97042.81;5048336;28;20108;-71
2021/12/28 05:48:14;;;;;;;7.65;1.40;;;;;;;6.57;100.00;97054.66;5047172;28;20568;-69
2021/12/28 05:50:40;;;;;;;6.15;1.50;;;;;;;6.59;100.00;97052.59;5035045;28;20035;-71
2021/12/28 05:53:05;;;;;;;7.32;2.15;;;;;;;6.58;100.00;97047.44;5030519;28;20036;-72
2021/12/28 05:55:31;;;;;;;3.20;0.90;;;;;;;6.61;100.00;97051.56;5046513;28;20051;-72
2021/12/28 05:57:57;;;;;;;5.50;1.17;;;;;;;6.56;100.00;97047.66;5049270;28;20033;-72
2021/12/28 06:00:23;;;;;;;3.20;0.88;;;;;;;6.52;100.00;97053.69;5048132;28;20063;-72
2021/12/28 06:02:48;;;;;;;6.97;1.10;;;;;;;6.45;100.00;97039.53;5043721;28;20108;-70
2021/12/28 06:05:14;;;;;;;5.15;1.25;;;;;;;6.29;100.00;97025.59;5032252;28;20106;-70
2021/12/28 06:07:39;;;;;;;6.78;1.30;;;;;;;6.29;100.00;97033.66;5049055;28;20083;-70
2021/12/28 06:10:06;;;;;;;6.43;1.50;;;;;;;6.23;100.00;97022.94;5033035;28;20040;-70
2021/12/28 06:12:31;;;;;;;3.40;0.88;;;;;;;6.43;100.00;97047.78;5052427;28;20094;-71
2021/12/28 06:14:57;;;;;;;4.72;1.40;;;;;;;6.43;100.00;97044.28;5047660;28;20021;-70
2021/12/28 06:17:22;;;;;;;5.78;1.25;;;;;;;6.33;100.00;97036.72;5054852;28;20107;-70
2021/12/28 06:19:47;;;;;;;6.28;1.40;;;;;;;6.36;100.00;97039.78;5050674;28;20024;-70
2021/12/28 06:22:13;;;;;;;2.55;1.02;;;;;;;6.48;100.00;97041.75;5051047;28;20024;-70
2021/12/28 06:24:39;;;;;;;3.17;1.13;;;;;;;6.50;100.00;97042.38;5052927;28;20091;-70
2021/12/28 06:27:04;;;;;;;5.18;1.27;;;;;;;6.49;100.00;97029.97;5051247;28;20486;-70
2021/12/28 06:29:30;;;;;;;7.65;1.45;;;;;;;6.38;100.00;97003.81;5048152;28;20082;-70
2021/12/28 06:31:55;;;;;;;3.75;1.77;;;;;;;6.42;100.00;97019.28;5032080;28;20490;-71
2021/12/28 06:34:20;;;;;;;5.03;1.35;;;;;;;6.57;100.00;97016.22;5055012;28;20040;-70
2021/12/28 06:36:45;;;;;;;3.25;1.05;;;;;;;6.62;100.00;97008.34;5053071;28;20029;-70
2021/12/28 06:39:11;;;;;;;2.90;1.30;;;;;;;6.58;100.00;96996.41;5053362;28;20754;-72
2021/12/28 06:41:38;;;;;;;7.18;1.27;;;;;;;6.69;100.00;97019.84;5045622;28;20048;-72
2021/12/28 06:44:05;;;;;;;7.50;1.63;;;;;;;6.67;100.00;97010.38;5050939;28;20025;-72
2021/12/28 06:46:30;;;;;;;4.32;1.00;;;;;;;6.54;100.00;96998.69;5051131;28;20035;-72
2021/12/28 06:48:55;;;;;;;5.50;0.93;;;;;;;6.47;100.00;97000.66;5060163;28;20024;-72
2021/12/28 06:51:20;;;;;;;3.30;1.02;;;;;;;6.59;100.00;97003.41;5031398;28;20028;-70
2021/12/28 06:53:47;;;;;;;4.43;1.10;;;;;;;6.68;100.00;97007.47;5044437;28;20039;-72
2021/12/28 06:56:12;;;;;;;3.60;1.00;;;;;;;6.67;100.00;96999.63;5044941;28;20035;-72
2021/12/28 06:58:38;;;;;;;2.35;0.90;;;;;;;6.71;100.00;97003.50;5046024;28;20394;-70
2021/12/28 07:01:04;;;;;;;4.13;0.90;;;;;;;6.78;100.00;97010.44;5044520;28;20078;-72
2021/12/28 07:03:29;;;;;;;3.40;1.33;;;;;;;6.72;100.00;97008.66;5044906;28;20037;-72
2021/12/28 07:05:55;;;;;;;3.97;1.17;;;;;;;6.73;100.00;97026.44;5047593;28;20029;-71
2021/12/28 07:08:20;;;;;;;6.07;1.20;;;;;;;6.72;100.00;97016.72;5046911;28;20029;-71
2021/12/28 07:10:45;;;;;;;4.68;0.90;;;;;;;6.55;100.00;96992.28;5045263;28;20097;-71
2021/12/28 07:13:10;;;;;;;2.10;0.90;;;;;;;6.57;100.00;97000.94;5044049;28;20037;-70
2021/12/28 07:15:36;;;;;;;3.78;1.52;;;;;;;6.63;100.00;97010.00;5048520;28;20025;-70
2021/12/28 07:18:01;;;;;;;4.35;1.15;;;;;;;6.71;100.00;97016.94;5048784;28;20029;-70
2021/12/28 07:20:27;;;;;;;4.13;1.33;;;;;;;6.68;100.00;97004.78;5046177;28;20051;-70
2021/12/28 07:22:52;;;;;;;3.40;0.82;;;;;;;6.68;100.00;96987.81;5036581;28;20029;-69
2021/12/28 07:25:18;;;;;;;2.35;0.95;;;;;;;6.81;100.00;97011.84;5036902;28;20037;-69
2021/12/28 07:27:44;;;;;;;2.70;1.23;;;;;;;6.96;100.00;97008.81;5044512;28;20036;-70
2021/12/28 07:30:12;;;;;;;3.63;1.17;;;;;;;6.96;100.00;97009.63;5055427;28;20056;-69
2021/12/28 07:32:38;;;;;;;4.47;1.02;;;;;;;7.07;100.00;97010.72;5043657;28;20037;-70
2021/12/28 07:35:05;;;;;;;4.03;1.08;;;;;;;6.99;100.00;96998.41;5050604;28;20040;-73
2021/12/28 07:37:30;;;;;;;2.97;1.25;;;;;;;6.85;100.00;96977.31;5037897;28;20028;-68
2021/12/28 07:39:56;;;;;;;7.85;1.75;;;;;;;6.96;100.00;96981.91;5046184;28;20090;-73
2021/12/28 07:42:21;;;;;;;3.88;1.00;;;;;;;7.12;100.00;97002.81;5021552;28;20132;-71
2021/12/28 07:44:47;;;;;;;3.22;0.90;;;;;;;7.03;100.00;96982.66;5044005;28;20025;-71
2021/12/28 07:47:13;;;;;;;2.88;0.90;;;;;;;7.15;100.00;97006.91;5047706;28;20064;-70
2021/12/28 07:49:39;;;;;;;2.55;1.00;;;;;;;7.20;100.00;97007.91;5051839;28;20028;-72
2021/12/28 07:52:05;;;;;;;2.00;0.75;;;;;;;7.25;100.00;96999.94;5045819;28;20032;-72
2021/12/28 07:54:31;;;;;;;5.28;0.70;;;;;;;7.28;100.00;97003.25;5047682;28;20390;-69
2021/12/28 07:56:56;;;;;;;2.90;0.57;;;;;;;7.10;100.00;96983.41;5047356;28;20025;-68
2021/12/28 07:59:21;;;;;;;0.50;0.40;;;;;;;7.27;100.00;96994.34;5053358;28;20032;-74
2021/12/28 08:01:47;;;;;;;2.05;0.50;;;;;;;7.28;100.00;96998.69;5052596;28;20650;-73
2021/12/28 08:04:12;;;;;;;1.45;0.57;;;;;;;7.31;100.00;97010.84;5048621;28;20029;-72
2021/12/28 08:06:37;;;;;;;3.05;0.50;;;;;;;7.23;100.00;96993.16;5051636;28;20025;-74
2021/12/28 08:09:03;;;;;;;2.08;0.60;;;;;;;7.40;100.00;97017.59;5028401;28;20021;-72
2021/12/28 08:11:29;;;;;;;4.82;0.82;;;;;;;7.28;100.00;97003.25;5048733;28;20024;-72
2021/12/28 08:13:55;;;;;;;0.93;0.55;;;;;;;7.42;100.00;97023.56;5033715;28;20033;-73
2021/12/28 08:16:21;;;;;;;1.67;0.75;;;;;;;7.28;100.00;97000.56;5051191;28;20082;-75
2021/12/28 08:18:46;;;;;;;0.52;0.47;;;;;;;7.26;100.00;97008.88;5034419;28;20036;-76
2021/12/28 08:21:11;;;;;;;2.90;0.73;;;;;;;7.29;100.00;97023.72;5034923;28;20402;-75
2021/12/28 08:23:37;;;;;;;1.17;0.52;;;;;;;6.98;100.00;96975.28;5052746;28;20035;-74
2021/12/28 08:26:03;;;;;;;3.10;1.05;;;;;;;6.97;100.00;96967.44;5046466;28;21681;-76
2021/12/28 08:28:29;;;;;;;0.88;0.50;;;;;;;7.33;100.00;97023.03;5054785;28;20028;-76
2021/12/28 08:30:56;;;;;;;1.08;0.60;;;;;;;7.15;100.00;96999.69;5040265;28;20036;-76
2021/12/28 08:33:21;;;;;;;1.20;0.50;;;;;;;7.11;100.00;96995.81;5045463;28;20029;-75
2021/12/28 08:35:47;;;;;;;2.38;0.60;;;;;;;7.10;100.00;97010.31;5055266;28;20162;-75
2021/12/28 08:38:12;;;;;;;1.85;0.70;;;;;;;7.05;100.00;97006.63;5053221;28;20120;-72
2021/12/28 08:40:40;;;;;;;3.38;1.17;;;;;;;7.07;100.00;97008.03;5054250;28;20025;-73
2021/12/28 08:43:06;;;;;;;3.85;1.15;;;;;;;7.19;100.00;97035.81;5052309;28;20486;-72
2021/12/28 08:45:32;;;;;;;2.97;0.90;;;;;;;7.19;100.00;97040.41;5035643;28;20033;-70
2021/12/28 08:47:57;;;;;;;2.33;0.73;;;;;;;7.08;100.00;97017.78;5061895;28;20024;-72
2021/12/28 08:50:23;;;;;;;1.35;0.85;;;;;;;7.17;100.00;97035.22;5048383;28;20060;-72
2021/12/28 08:52:48;;;;;;;2.75;0.90;;;;;;;7.24;100.00;97041.34;5049124;28;20028;-70
2021/12/28 08:55:15;;;;;;;1.42;0.90;;;;;;;7.31;100.00;97043.13;5056224;28;20105;-71
2021/12/28 08:57:40;;;;;;;1.52;0.90;;;;;;;7.29;100.00;97023.72;5052621;28;20039;-71
2021/12/28 09:00:10;;;;;;;2.92;0.80;;;;;;;7.44;100.00;97042.97;5037122;28;20021;-72
2021/12/28 09:02:35;;;;;;;1.55;0.70;;;;;;;7.51;100.00;97042.91;5050689;28;20017;-71
2021/12/28 09:05:01;;;;;;;1.70;0.70;;;;;;;7.50;100.00;97030.50;5053082;28;20028;-72
2021/12/28 09:07:26;;;;;;;0.75;0.50;;;;;;;7.40;100.00;97021.09;5054421;28;20029;-71
2021/12/28 09:09:51;;;;;;;1.63;0.60;;;;;;;7.37;100.00;97005.41;5051481;28;20052;-74
2021/12/28 09:12:17;;;;;;;2.38;0.60;;;;;;;7.67;100.00;97045.75;5051519;28;20029;-71
2021/12/28 09:14:42;;;;;;;1.88;0.70;;;;;;;7.67;100.00;97002.69;5034777;28;20063;-72
2021/12/28 09:17:08;;;;;;;1.70;0.60;;;;;;;7.82;100.00;97025.69;5037825;28;20393;-73
2021/12/28 09:19:33;;;;;;;1.58;0.68;;;;;;;7.85;100.00;97031.44;5053059;28;20061;-72
2021/12/28 09:22:00;;;;;;;1.25;0.50;;;;;;;7.88;100.00;97043.63;5057907;28;20086;-73
2021/12/28 09:24:25;;;;;;;0.77;0.40;;;;;;;7.71;100.00;97015.72;5057807;28;20028;-70
2021/12/28 09:26:51;;;;;;;2.58;0.65;;;;;;;7.75;100.00;97006.94;5047765;28;20528;-70
2021/12/28 09:29:17;;;;;;;1.15;0.40;;;;;;;7.99;100.00;97045.53;5044506;28;20063;-70
2021/12/28 09:31:42;;;;;;;1.70;0.55;;;;;;;7.96;100.00;97045.16;5042832;28;20111;-70
2021/12/28 09:34:08;;;;;;;2.33;0.50;;;;;;;7.84;100.00;97029.81;5047110;28;20059;-72
2021/12/28 09:36:34;;;;;;;0.55;0.38;;;;;;;8.00;100.00;97041.78;5034280;28;20469;-71
2021/12/28 09:38:59;;;;;;;1.05;0.50;;;;;;;8.02;100.00;97055.84;5037422;28;21714;-70
2021/12/28 09:41:24;;;;;;;0.45;0.40;;;;;;;8.01;100.00;97053.38;5033107;28;20094;-70
2021/12/28 09:43:50;;;;;;;1.33;0.55;;;;;;;8.01;100.00;97059.56;5050066;28;20142;-68
2021/12/28 09:46:15;;;;;;;1.17;0.75;;;;;;;7.92;100.00;97039.44;5052308;28;20171;-71
2021/12/28 09:48:41;;;;;;;3.58;0.98;;;;;;;7.86;100.00;97029.59;5055430;28;20141;-72
2021/12/28 09:51:08;;;;;;;4.07;1.10;;;;;;;8.07;100.00;97057.88;5049039;28;20024;-72
2021/12/28 09:53:35;;;;;;;2.63;0.70;;;;;;;8.06;100.00;97062.41;5045907;28;20032;-75
2021/12/28 09:56:01;;;;;;;4.25;1.20;;;;;;;8.15;100.00;97070.16;5049855;28;20021;-71
2021/12/28 09:58:26;;;;;;;3.22;1.00;;;;;;;8.07;100.00;97052.47;5053419;28;20025;-73
2021/12/28 10:00:52;;;;;;;1.70;0.60;;;;;;;7.97;100.00;97030.66;5048193;28;21432;-72
2021/12/28 10:03:17;;;;;;;2.92;1.23;;;;;;;8.11;100.00;97038.28;5050065;28;20498;-72
2021/12/28 10:05:43;;;;;;;3.63;1.00;;;;;;;8.22;100.00;97062.78;5050485;28;20025;-71
2021/12/28 10:08:09;;;;;;;1.08;0.50;;;;;;;8.14;100.00;97050.47;5051516;28;20052;-72
2021/12/28 10:10:41;;;;;;;5.75;0.90;;;;;;;8.17;100.00;97041.13;5046977;28;20035;-71
2021/12/28 10:13:10;;;;;;;1.25;0.50;;;;;;;8.33;100.00;97067.38;5056610;28;20135;-70
2021/12/28 10:15:38;;;;;;;2.85;0.80;;;;;;;8.28;100.00;97070.78;5049578;28;20025;-71
2021/12/28 10:18:08;;;;;;;1.45;0.30;;;;;;;8.34;100.00;97072.56;5053190;28;20029;-70
2021/12/28 10:20:46;;;;;;;0.32;0.25;;;;;;;8.41;100.00;97069.78;5052053;28;20388;-69
2021/12/28 10:23:15;;;;;;;0.30;0.20;;;;;;;8.59;100.00;97063.47;5053085;28;20115;-68
2021/12/28 10:25:44;;;;;;;1.17;0.50;;;;;;;8.59;100.00;97068.84;5049348;28;20115;-68
2021/12/28 10:28:16;;;;;;;0.70;0.50;;;;;;;8.51;100.00;97053.03;5052702;28;20017;-69
2021/12/28 10:30:45;;;;;;;1.10;0.50;;;;;;;8.59;100.00;97060.75;5048595;28;20295;-68
2021/12/28 10:33:12;;;;;;;;;;;;;;;8.63;100.00;97058.44;5049825;28;20054;-66
2021/12/28 10:35:44;;;;;;;0.52;0.30;;;;;;;8.64;100.00;97055.50;5048049;28;20001;-67
2021/12/28 10:38:13;;;;;;;1.15;0.40;;;;;;;8.52;100.00;97038.50;5044214;28;20095;-67
2021/12/28 10:40:51;;;;;;;2.43;0.80;;;;;;;8.72;100.00;97038.16;5028895;28;20507;-69
2021/12/28 10:43:19;;;;;;;2.05;0.70;;;;;;;8.82;100.00;97018.69;5044994;28;20283;-67
2021/12/28 10:45:47;;;;;;;2.00;0.70;;;;;;;8.95;100.00;97027.34;5040985;28;20041;-68
2021/12/28 10:48:20;;;;;;;0.73;0.60;;;;;;;9.18;100.00;97058.06;5038994;28;20045;-66
2021/12/28 10:51:12;;;;;;;0.55;0.40;;;;;;;9.23;100.00;97049.25;5044728;28;20082;-67
2021/12/28 10:54:36;;;;;;;0.68;0.50;;;;;;;9.12;100.00;97046.34;5040784;28;20060;-67
2021/12/28 10:56:54;;;;;;;0.95;0.70;;;;;;;9.09;100.00;97049.50;5035852;28;20839;-67
2021/12/28 10:59:22;;;;;;;1.00;0.70;;;;;;;9.03;100.00;97050.44;5040956;28;20041;-67
2021/12/28 11:01:49;;;;;;;6.83;0.90;;;;;;;9.06;100.00;97049.97;5041450;28;20107;-67
2021/12/28 11:04:15;;;;;;;2.33;0.50;;;;;;;9.08;100.00;97049.75;5044330;28;20283;-67
2021/12/28 11:06:51;;;;;;;2.88;0.65;;;;;;;9.14;100.00;97052.31;5044318;28;20041;-67
2021/12/28 11:09:19;;;;;;;1.27;0.50;;;;;;;9.13;100.00;97039.88;5046791;28;20025;-68
2021/12/28 11:11:46;;;;;;;1.50;0.70;;;;;;;9.31;100.00;97048.88;5040187;28;20668;-67
2021/12/28 11:14:18;;;;;;;1.63;0.45;;;;;;;9.40;100.00;97047.44;5043272;28;20124;-68
2021/12/28 11:16:58;;;;;;;0.55;0.38;;;;;;;9.58;100.00;97041.03;5040758;28;20075;-68
2021/12/28 11:19:26;;;;;;;0.85;0.35;;;;;;;9.57;100.00;97040.22;5043463;28;20029;-68
2021/12/28 11:21:55;;;;;;;0.95;0.73;;;;;;;9.60;100.00;97034.34;5040854;28;20828;-67
2021/12/28 11:24:20;;;;;;;0.80;0.50;;;;;;;9.51;100.00;97035.81;5043747;28;20043;-72
2021/12/28 11:26:50;;;;;;;0.45;0.20;;;;;;;9.36;100.00;97020.13;5028403;28;20269;-75
2021/12/28 11:29:21;;;;;;;0.15;0.15;;;;;;;9.34;100.00;97008.72;5045292;28;20063;-67
2021/12/28 11:31:50;;;;;;;1.60;0.43;;;;;;;9.53;100.00;97038.25;5041958;28;20484;-65